Time;durP1;ratioP1;P1;durP2;ratioP2;P2;SDS_P1;SDS_P2;PMS_P1;PMS_P2;Temp;Humidity;BMP_temperature;BMP_pressure;BME280_temperature;BME280_humidity;BME280_pressure;Samples;Min_cycle;Max_cycle;Signal;HPM_P1;HPM_P2
2021/03/14 00:02:08;;;;;;;6.78;3.28;;;;;;;10.87;49.90;97611.94;251354;1146;114667;-87
2021/03/14 00:07:11;;;;;;;;;;;;;;;10.77;50.18;97632.34;252009;1146;114615;-85
2021/03/14 00:12:13;;;;;;;5.60;3.40;;;;;;;10.71;49.91;97640.83;252121;1147;101255;-86
2021/03/14 00:17:16;;;;;;;6.30;2.87;;;;;;;10.69;51.08;97632.97;251904;1148;115039;-87
2021/03/14 00:22:19;;;;;;;4.20;2.10;;;;;;;10.59;51.02;97630.23;251949;1154;116347;-87
2021/03/14 00:27:21;;;;;;;2.40;1.67;;;;;;;10.42;51.49;97615.70;251797;1146;114718;-88
2021/03/14 00:32:24;;;;;;;2.83;1.75;;;;;;;10.29;52.16;97604.44;252000;1153;114785;-87
2021/03/14 00:37:27;;;;;;;1.98;1.33;;;;;;;10.15;51.99;97589.58;251541;1146;114931;-86
2021/03/14 00:42:48;;;;;;;1.55;1.28;;;;;;;10.06;52.76;97593.03;251665;1146;115158;-85
2021/03/14 00:48:06;;;;;;;1.80;1.10;;;;;;;10.03;52.43;97579.16;252012;1153;114722;-86
2021/03/14 00:53:10;;;;;;;1.83;1.10;;;;;;;9.98;52.40;97590.14;252033;1153;114750;-86
2021/03/14 00:58:15;;;;;;;2.15;1.38;;;;;;;9.91;52.61;97605.75;252009;1145;114726;-86
2021/03/14 01:03:19;;;;;;;1.97;1.13;;;;;;;9.88;52.61;97597.19;252090;1153;114808;-86
2021/03/14 01:08:22;;;;;;;2.45;1.18;;;;;;;9.85;52.74;97600.09;252090;1145;114441;-86
2021/03/14 01:13:25;;;;;;;2.23;1.08;;;;;;;9.76;52.79;97604.38;252066;1146;114619;-87
2021/03/14 01:18:30;;;;;;;3.50;1.40;;;;;;;9.69;53.05;97614.66;252045;1144;114468;-86
2021/03/14 01:23:32;;;;;;;2.43;1.40;;;;;;;9.65;52.69;97610.56;252038;1146;114329;-86
2021/03/14 01:28:34;;;;;;;1.75;1.13;;;;;;;9.63;52.95;97631.08;251946;1147;115314;-87
2021/03/14 01:33:37;;;;;;;1.83;1.10;;;;;;;9.63;53.02;97619.61;251603;1146;115026;-87
2021/03/14 01:38:39;;;;;;;1.65;1.30;;;;;;;9.57;52.89;97615.63;250315;1146;114471;-86
2021/03/14 01:43:42;;;;;;;2.23;1.17;;;;;;;9.51;53.09;97610.84;250535;1153;114342;-88
2021/03/14 01:48:45;;;;;;;1.53;1.28;;;;;;;9.46;52.83;97613.01;250204;1153;114851;-88
2021/03/14 01:53:48;;;;;;;1.63;1.18;;;;;;;9.43;52.96;97594.66;251808;1153;114254;-88
2021/03/14 01:58:50;;;;;;;2.47;1.30;;;;;;;9.41;52.56;97593.96;251937;1147;114398;-87
2021/03/14 02:03:53;;;;;;;1.98;1.10;;;;;;;9.41;52.69;97600.11;252057;1146;114535;-87
2021/03/14 02:08:55;;;;;;;1.30;0.90;;;;;;;9.38;52.78;97595.05;250112;1153;114599;-87
2021/03/14 02:14:02;;;;;;;3.47;1.13;;;;;;;9.40;52.51;97605.53;251307;1146;114846;-86
2021/03/14 02:19:10;;;;;;;2.37;1.07;;;;;;;9.37;52.50;97608.42;250696;1146;114673;-88
2021/03/14 02:24:20;;;;;;;3.90;0.85;;;;;;;9.32;52.48;97622.08;250647;1146;114446;-86
2021/03/14 02:29:24;;;;;;;2.30;1.00;;;;;;;9.32;52.39;97608.80;250973;1146;114411;-85
2021/03/14 02:34:32;;;;;;;2.48;1.03;;;;;;;9.34;51.76;97614.84;252004;1152;114945;-86
2021/03/14 02:39:36;;;;;;;2.33;0.87;;;;;;;9.35;52.35;97575.87;252000;1147;114274;-86
2021/03/14 02:44:43;;;;;;;2.10;1.30;;;;;;;9.33;52.14;97583.09;249928;1152;114552;-87
2021/03/14 02:49:49;;;;;;;2.85;1.00;;;;;;;9.31;52.26;97582.39;252015;1147;114450;-86
2021/03/14 02:54:52;;;;;;;1.50;1.00;;;;;;;9.30;52.34;97591.30;249851;1146;114577;-88
2021/03/14 02:59:57;;;;;;;2.73;1.00;;;;;;;9.24;52.25;97582.88;251347;1146;114410;-87
2021/03/14 03:05:00;;;;;;;2.23;1.08;;;;;;;9.21;52.84;97575.16;251994;1153;115079;-86
2021/03/14 03:10:03;;;;;;;3.50;1.20;;;;;;;9.18;52.68;97587.83;250372;1146;115007;-87
2021/03/14 03:15:07;;;;;;;3.00;1.20;;;;;;;9.14;52.14;97594.36;252017;1146;114786;-86
2021/03/14 03:20:11;;;;;;;1.43;0.90;;;;;;;9.06;52.52;97592.29;249594;1146;114874;-86
2021/03/14 03:25:14;;;;;;;3.00;1.10;;;;;;;9.05;52.60;97592.42;251992;1145;114443;-86
2021/03/14 03:30:19;;;;;;;1.60;0.95;;;;;;;9.05;52.11;97601.22;252038;1146;114269;-86
2021/03/14 03:35:22;;;;;;;2.35;0.98;;;;;;;9.04;52.24;97602.20;249578;1144;114342;-86
2021/03/14 03:40:27;;;;;;;1.78;0.83;;;;;;;8.99;52.25;97607.84;250777;1146;114806;-86
2021/03/14 03:45:33;;;;;;;3.78;0.88;;;;;;;8.93;52.41;97618.97;252010;1153;114253;-87
2021/03/14 03:50:37;;;;;;;2.35;1.00;;;;;;;8.91;52.74;97631.50;251530;1146;114631;-87
2021/03/14 03:55:43;;;;;;;1.85;0.70;;;;;;;8.86;52.18;97625.69;247554;1153;114166;-88
2021/03/14 04:00:46;;;;;;;1.57;0.63;;;;;;;8.80;52.21;97609.41;252031;1145;114396;-89
2021/03/14 04:05:54;;;;;;;1.23;0.60;;;;;;;8.80;52.78;97615.58;252026;1146;114440;-89
2021/03/14 04:10:58;;;;;;;1.37;0.70;;;;;;;8.80;52.41;97588.18;252023;1148;115234;-87
2021/03/14 04:16:02;;;;;;;2.60;0.90;;;;;;;8.79;52.35;97603.26;251357;1153;114279;-87
2021/03/14 04:21:07;;;;;;;1.80;0.87;;;;;;;8.81;52.69;97597.84;251961;1147;114488;-87
2021/03/14 04:26:12;;;;;;;1.50;0.80;;;;;;;8.78;52.14;97606.05;252055;1146;114724;-86
2021/03/14 04:31:15;;;;;;;2.55;1.00;;;;;;;8.76;52.41;97599.06;251977;1146;115018;-86
2021/03/14 04:36:18;;;;;;;2.97;1.00;;;;;;;8.72;52.15;97602.05;251842;1146;114481;-88
2021/03/14 04:41:21;;;;;;;1.65;0.90;;;;;;;8.71;52.37;97600.37;250781;1146;114485;-88
2021/03/14 04:46:24;;;;;;;2.33;0.95;;;;;;;8.72;52.59;97602.89;251261;1146;114547;-87
2021/03/14 04:51:29;;;;;;;2.45;1.03;;;;;;;8.72;52.53;97613.50;251773;1148;115040;-86
2021/03/14 04:56:32;;;;;;;1.33;0.88;;;;;;;8.70;52.39;97622.56;252029;1146;114415;-88
2021/03/14 05:01:40;;;;;;;1.53;0.80;;;;;;;8.68;52.41;97620.00;251751;1145;114647;-91
2021/03/14 05:06:44;;;;;;;3.70;0.90;;;;;;;8.65;52.55;97622.05;251735;1153;114731;-90
2021/03/14 05:11:48;;;;;;;1.80;0.80;;;;;;;8.66;52.36;97616.65;250436;1148;114475;-88
2021/03/14 05:16:50;;;;;;;1.40;0.80;;;;;;;8.64;52.49;97621.21;251345;1153;114345;-89
2021/03/14 05:21:53;;;;;;;1.37;0.80;;;;;;;8.65;52.07;97606.98;251055;1147;114590;-87
2021/03/14 05:26:57;;;;;;;2.73;1.20;;;;;;;8.66;52.55;97608.69;251775;1153;114410;-87
2021/03/14 05:31:59;;;;;;;1.50;0.80;;;;;;;8.68;52.26;97601.45;251813;1148;114626;-87
2021/03/14 05:37:02;;;;;;;2.65;1.20;;;;;;;8.71;52.43;97600.37;252163;1152;114278;-87
2021/03/14 05:42:05;;;;;;;2.30;0.85;;;;;;;8.73;51.92;97593.16;251413;1146;115232;-86
2021/03/14 05:47:08;;;;;;;2.10;0.90;;;;;;;8.75;52.64;97591.20;251820;1153;114402;-87
2021/03/14 05:52:16;;;;;;;1.50;0.88;;;;;;;8.76;52.11;97572.53;250728;1149;114611;-86
2021/03/14 05:57:19;;;;;;;4.80;1.20;;;;;;;8.76;52.20;97585.80;252014;1153;114814;-87
2021/03/14 06:02:23;;;;;;;2.25;1.00;;;;;;;8.72;52.27;97594.93;252041;1145;114669;-87
2021/03/14 06:07:27;;;;;;;5.20;1.20;;;;;;;8.72;51.96;97586.98;251301;1147;114379;-85
2021/03/14 06:12:32;;;;;;;2.23;0.95;;;;;;;8.73;52.35;97590.50;252004;1147;114399;-86
2021/03/14 06:17:35;;;;;;;1.87;1.00;;;;;;;8.76;52.24;97608.80;251238;1146;114723;-88
2021/03/14 06:22:38;;;;;;;2.18;1.08;;;;;;;8.82;52.50;97604.84;251669;1146;114385;-87
2021/03/14 06:27:53;;;;;;;3.00;1.00;;;;;;;8.89;52.25;97620.14;251077;1146;114200;-87
2021/03/14 06:33:02;;;;;;;3.83;1.30;;;;;;;8.97;52.00;97616.92;250430;1146;114320;-85
2021/03/14 06:38:27;;;;;;;4.27;1.33;;;;;;;8.96;52.16;97621.35;251690;1146;115424;-84
2021/03/14 06:43:46;;;;;;;3.18;1.10;;;;;;;8.99;51.82;97641.50;250323;1146;114379;-85
2021/03/14 06:49:07;;;;;;;3.37;1.00;;;;;;;8.98;51.92;97648.63;251969;1153;114282;-87
2021/03/14 06:54:27;;;;;;;3.37;1.10;;;;;;;9.00;52.21;97640.53;248413;1146;114668;-90
2021/03/14 06:59:36;;;;;;;2.63;1.20;;;;;;;9.01;51.73;97671.42;252111;1152;114883;-82
2021/03/14 07:04:41;;;;;;;4.57;1.13;;;;;;;9.00;51.59;97686.51;251818;1148;114472;-88
2021/03/14 07:09:44;;;;;;;4.00;1.57;;;;;;;9.01;52.08;97682.04;252007;1146;114381;-87
2021/03/14 07:14:48;;;;;;;1.95;1.05;;;;;;;9.09;51.68;97684.09;251948;1146;114895;-88
2021/03/14 07:19:55;;;;;;;2.10;1.00;;;;;;;9.14;51.79;97685.44;251177;1153;114241;-86
2021/03/14 07:24:58;;;;;;;2.55;1.00;;;;;;;9.22;51.46;97690.97;251539;1146;114261;-88
2021/03/14 07:30:02;;;;;;;4.30;1.17;;;;;;;9.29;51.53;97686.03;250791;1146;114378;-87
2021/03/14 07:35:05;;;;;;;3.67;1.27;;;;;;;9.37;51.65;97672.98;250939;1146;114523;-85
2021/03/14 07:40:12;;;;;;;3.80;1.20;;;;;;;9.49;51.46;97679.16;252074;1153;114685;-85
2021/03/14 07:45:17;;;;;;;2.50;1.00;;;;;;;9.56;51.31;97690.97;251388;1147;114537;-84
2021/03/14 07:50:22;;;;;;;3.58;1.43;;;;;;;9.59;51.06;97689.89;250741;1146;115554;-86
2021/03/14 07:55:25;;;;;;;2.15;1.20;;;;;;;9.65;50.92;97692.91;248041;1146;115301;-83
2021/03/14 08:00:35;;;;;;;2.43;1.10;;;;;;;9.74;50.82;97703.75;250488;1146;114572;-83
2021/03/14 08:05:41;;;;;;;4.65;1.20;;;;;;;9.81;50.72;97689.00;251980;1146;114613;-82
2021/03/14 08:10:45;;;;;;;3.83;1.15;;;;;;;9.82;50.20;97680.09;251961;1153;114415;-83
2021/03/14 08:16:06;;;;;;;3.43;1.60;;;;;;;9.83;50.32;97689.73;251961;1146;115195;-80
2021/03/14 08:21:21;;;;;;;2.53;1.13;;;;;;;9.88;50.20;97716.77;251950;1153;116055;-80
2021/03/14 08:26:40;;;;;;;4.60;1.30;;;;;;;9.87;50.03;97728.38;251948;1146;115074;-80
2021/03/14 08:31:48;;;;;;;3.57;1.40;;;;;;;9.91;49.75;97749.25;252028;1145;114605;-80
2021/03/14 08:36:56;;;;;;;4.70;1.50;;;;;;;9.92;49.66;97764.25;251996;1146;114610;-78
2021/03/14 08:42:15;;;;;;;2.35;1.10;;;;;;;9.92;49.56;97761.59;250463;1145;114919;-77
2021/03/14 08:47:25;;;;;;;2.28;1.25;;;;;;;9.99;49.68;97755.79;251943;1146;114920;-79
2021/03/14 08:52:39;;;;;;;4.95;1.50;;;;;;;10.04;49.18;97765.06;252339;1153;114234;-78
2021/03/14 08:58:15;;;;;;;4.50;1.57;;;;;;;10.04;49.21;97775.70;252370;1153;114468;-78
2021/03/14 09:03:22;;;;;;;3.60;1.40;;;;;;;10.05;49.40;97771.22;252169;1145;114318;-80
2021/03/14 09:08:25;;;;;;;4.05;1.85;;;;;;;10.10;49.60;97775.20;251328;1146;115086;-79
2021/03/14 09:13:28;;;;;;;5.40;1.80;;;;;;;10.11;49.11;97768.91;252017;1146;114802;-79
2021/03/14 09:18:49;;;;;;;4.20;1.85;;;;;;;10.14;49.25;97767.83;251924;1147;114934;-79
2021/03/14 09:23:53;;;;;;;4.20;2.00;;;;;;;10.14;49.08;97759.86;252006;1145;115560;-78
2021/03/14 09:29:00;;;;;;;4.90;1.80;;;;;;;10.18;48.78;97772.77;251858;1146;117555;-79
2021/03/14 09:34:03;;;;;;;3.90;2.10;;;;;;;10.21;49.24;97758.39;251364;1146;114969;-78
2021/03/14 09:39:11;;;;;;;2.80;1.40;;;;;;;10.27;48.62;97773.04;250087;1153;114889;-79
2021/03/14 09:44:21;;;;;;;4.55;1.70;;;;;;;10.27;48.72;97778.36;250753;1146;114955;-77
2021/03/14 09:49:33;;;;;;;5.23;1.85;;;;;;;10.19;48.42;97786.93;251728;1148;114858;-80
2021/03/14 09:54:39;;;;;;;4.37;1.80;;;;;;;10.18;48.64;97786.05;251995;1145;115030;-79
2021/03/14 09:59:42;;;;;;;8.15;2.30;;;;;;;10.20;48.65;97775.31;251911;1145;114794;-79
2021/03/14 10:04:55;;;;;;;6.27;2.27;;;;;;;10.18;48.71;97786.05;251520;1145;115123;-78
2021/03/14 10:09:59;;;;;;;4.33;1.70;;;;;;;10.16;48.50;97787.17;251955;1145;115758;-79
2021/03/14 10:15:18;;;;;;;4.38;1.88;;;;;;;10.11;48.37;97792.84;250980;1145;115743;-76
2021/03/14 10:20:26;;;;;;;4.97;2.13;;;;;;;10.08;48.43;97803.72;251749;1147;114749;-79
2021/03/14 10:25:36;;;;;;;4.63;2.00;;;;;;;10.05;48.96;97829.70;251912;1146;114823;-84
2021/03/14 10:30:49;;;;;;;7.37;2.80;;;;;;;10.04;48.66;97828.86;252036;1153;114889;-82
2021/03/14 10:36:06;;;;;;;6.83;2.30;;;;;;;10.06;48.77;97824.28;251921;1145;114691;-83
2021/03/14 10:41:13;;;;;;;5.03;1.97;;;;;;;10.08;48.42;97827.64;251962;1144;114623;-83
2021/03/14 10:46:54;;;;;;;4.93;2.00;;;;;;;10.04;48.80;97828.86;251888;1145;114885;-83
2021/03/14 10:52:02;;;;;;;3.10;1.90;;;;;;;10.03;48.81;97826.33;251790;1146;114541;-82
2021/03/14 10:57:15;;;;;;;3.85;1.60;;;;;;;10.01;48.56;97853.02;251941;1146;114739;-83
2021/03/14 11:02:42;;;;;;;5.70;2.30;;;;;;;9.99;48.70;97838.18;251873;1153;115968;-82
2021/03/14 11:08:00;;;;;;;7.63;2.58;;;;;;;10.05;49.19;97850.95;251951;1146;115000;-82
2021/03/14 11:13:18;;;;;;;4.43;2.30;;;;;;;10.13;48.85;97852.06;251920;1146;115297;-81
2021/03/14 11:18:37;;;;;;;4.93;2.30;;;;;;;10.12;48.89;97857.48;251894;1145;114565;-83
2021/03/14 11:23:49;;;;;;;3.60;2.40;;;;;;;10.18;49.15;97854.34;252001;1144;114850;-83
2021/03/14 11:29:08;;;;;;;5.08;2.78;;;;;;;10.21;49.15;97847.94;251937;1146;115530;-79
2021/03/14 11:34:26;;;;;;;5.80;2.80;;;;;;;10.21;49.04;97837.30;251932;1147;115077;-81
2021/03/14 11:39:48;;;;;;;5.17;2.80;;;;;;;10.19;48.99;97838.28;251941;1146;115347;-83
2021/03/14 11:44:58;;;;;;;6.10;3.05;;;;;;;10.28;49.40;97827.91;251895;1146;114892;-81
2021/03/14 11:50:03;;;;;;;6.45;2.73;;;;;;;10.36;48.99;97817.48;251925;1147;114864;-84
2021/03/14 11:55:06;;;;;;;8.15;3.20;;;;;;;10.40;49.27;97829.59;251930;1146;115259;-83
2021/03/14 12:00:10;;;;;;;7.27;2.80;;;;;;;10.42;48.88;97836.45;252047;1146;115462;-83
2021/03/14 12:05:19;;;;;;;6.33;2.85;;;;;;;10.41;48.81;97831.27;252051;1145;114995;-82
2021/03/14 12:10:22;;;;;;;5.93;2.83;;;;;;;10.41;49.15;97826.79;251843;1147;114834;-82
2021/03/14 12:15:25;;;;;;;4.35;2.80;;;;;;;10.73;49.26;97817.98;252007;1153;114943;-78
2021/03/14 12:20:30;;;;;;;4.97;2.67;;;;;;;11.04;48.61;97813.65;251986;1146;116118;-82
2021/03/14 12:25:40;;;;;;;5.80;2.55;;;;;;;11.13;48.36;97822.67;251882;1153;115542;-76
2021/03/14 12:30:48;;;;;;;8.23;3.08;;;;;;;10.99;47.92;97810.52;251893;1146;114718;-76
2021/03/14 12:35:52;;;;;;;7.45;3.40;;;;;;;10.85;47.88;97818.80;251674;1145;115528;-78
2021/03/14 12:41:07;;;;;;;4.45;3.20;;;;;;;10.80;47.56;97816.53;251909;1146;114609;-76
2021/03/14 12:46:10;;;;;;;6.03;3.47;;;;;;;10.74;47.92;97825.02;251880;1152;114957;-81
2021/03/14 12:51:14;;;;;;;6.73;3.60;;;;;;;10.71;47.58;97822.61;251603;1145;115660;-80
2021/03/14 12:56:17;;;;;;;10.65;4.30;;;;;;;10.67;47.15;97838.96;251801;1146;114680;-76
2021/03/14 13:01:29;;;;;;;7.13;3.80;;;;;;;10.55;47.09;97843.45;251856;1145;114905;-74
2021/03/14 13:06:32;;;;;;;9.28;4.30;;;;;;;10.43;47.41;97842.64;251971;1146;114719;-74
2021/03/14 13:11:34;;;;;;;6.78;3.75;;;;;;;10.41;47.43;97852.55;251951;1144;114701;-76
2021/03/14 13:16:37;;;;;;;6.50;3.50;;;;;;;10.39;47.32;97863.32;252064;1152;114723;-75
2021/03/14 13:21:40;;;;;;;6.83;4.00;;;;;;;10.37;47.72;97883.86;251963;1146;115313;-75
2021/03/14 13:26:43;;;;;;;8.93;3.97;;;;;;;10.36;47.51;97889.28;251918;1153;115431;-77
2021/03/14 13:31:45;;;;;;;9.83;3.73;;;;;;;10.34;47.52;97894.73;251972;1146;114847;-74
2021/03/14 13:36:48;;;;;;;9.17;4.23;;;;;;;10.35;47.80;97892.92;251739;1153;115431;-75
2021/03/14 13:41:50;;;;;;;6.00;3.80;;;;;;;10.32;47.79;97901.14;249797;1146;115029;-75
2021/03/14 13:47:02;;;;;;;6.40;3.23;;;;;;;10.22;47.83;97903.64;252003;1153;114595;-75
2021/03/14 13:52:05;;;;;;;10.05;3.85;;;;;;;10.19;47.81;97914.55;251047;1146;115031;-76
2021/03/14 13:57:08;;;;;;;7.00;3.20;;;;;;;10.16;47.73;97910.31;251987;1153;115002;-79
2021/03/14 14:02:10;;;;;;;6.55;2.95;;;;;;;10.14;47.93;97914.88;251135;1146;114841;-73
2021/03/14 14:07:13;;;;;;;7.13;3.70;;;;;;;10.18;47.82;97920.80;252006;1145;114903;-73
2021/03/14 14:12:16;;;;;;;8.83;3.23;;;;;;;10.22;47.57;97924.06;252019;1146;115274;-73
2021/03/14 14:17:18;;;;;;;7.30;3.80;;;;;;;10.27;47.49;97917.47;252020;1145;115198;-75
2021/03/14 14:22:24;;;;;;;7.67;3.50;;;;;;;10.32;47.71;97922.41;251972;1145;115193;-76
2021/03/14 14:27:27;;;;;;;10.13;3.90;;;;;;;10.34;47.74;97912.52;252011;1146;114939;-72
2021/03/14 14:32:29;;;;;;;7.53;3.43;;;;;;;10.37;47.32;97917.59;251921;1146;115022;-71
2021/03/14 14:37:32;;;;;;;6.07;3.30;;;;;;;10.37;47.32;97918.43;251911;1153;115129;-71
2021/03/14 14:42:35;;;;;;;7.20;3.23;;;;;;;10.37;47.28;97939.70;248761;1146;114918;-72
2021/03/14 14:47:37;;;;;;;4.83;2.90;;;;;;;10.24;47.34;97941.60;252041;1148;114892;-71
2021/03/14 14:52:40;;;;;;;5.20;2.50;;;;;;;10.08;47.67;97936.63;252079;1145;114857;-71
2021/03/14 14:57:43;;;;;;;5.48;2.68;;;;;;;9.88;47.33;97961.23;252012;1153;114778;-74
2021/03/14 15:02:45;;;;;;;7.07;2.73;;;;;;;9.65;47.63;97955.88;252047;1146;115443;-71
2021/03/14 15:07:48;;;;;;;5.83;2.70;;;;;;;9.51;48.28;97960.52;252039;1153;116538;-71
2021/03/14 15:12:50;;;;;;;5.38;2.75;;;;;;;9.37;48.62;97943.80;252003;1146;114692;-72
2021/03/14 15:17:53;;;;;;;5.47;2.67;;;;;;;9.33;48.63;97954.78;252079;1146;114707;-71
2021/03/14 15:22:56;;;;;;;5.90;3.10;;;;;;;9.32;48.09;97945.98;252004;1146;115024;-74
2021/03/14 15:27:59;;;;;;;6.95;3.05;;;;;;;9.37;48.97;97940.31;252013;1145;114383;-70
2021/03/14 15:33:01;;;;;;;8.23;3.33;;;;;;;9.42;49.05;97946.14;252018;1146;114742;-79
2021/03/14 15:38:04;;;;;;;6.10;2.90;;;;;;;9.42;48.94;97940.83;251823;1146;114520;-79
2021/03/14 15:43:07;;;;;;;7.60;3.20;;;;;;;9.43;48.87;97948.66;251919;1146;114511;-88
2021/03/14 15:48:10;;;;;;;8.25;3.40;;;;;;;9.43;48.40;97953.14;251945;1153;114746;-72
2021/03/14 15:53:12;;;;;;;6.33;3.03;;;;;;;9.47;48.64;97943.97;251984;1146;114745;-72
2021/03/14 15:58:14;;;;;;;7.03;3.68;;;;;;;9.45;47.88;97954.72;252172;1152;114707;-72
2021/03/14 16:03:17;;;;;;;9.80;4.80;;;;;;;9.48;48.79;97966.93;252048;1146;115140;-71
2021/03/14 16:08:19;;;;;;;9.80;3.88;;;;;;;9.47;48.41;97966.05;251970;1153;114766;-70
2021/03/14 16:13:22;;;;;;;9.33;4.13;;;;;;;9.46;48.65;97982.12;251969;1145;115340;-74
2021/03/14 16:18:24;;;;;;;6.60;3.60;;;;;;;9.46;48.64;98001.55;252043;1145;114625;-71
2021/03/14 16:23:27;;;;;;;8.35;4.10;;;;;;;9.45;48.47;97999.87;251937;1146;114487;-73
2021/03/14 16:28:30;;;;;;;13.27;5.00;;;;;;;9.37;47.97;98004.03;252009;1145;114647;-76
2021/03/14 16:33:33;;;;;;;15.40;6.43;;;;;;;9.35;48.11;98011.28;251341;1146;115376;-72
2021/03/14 16:38:35;;;;;;;10.67;5.57;;;;;;;9.25;47.64;98013.77;251649;1144;114723;-75
2021/03/14 16:43:38;;;;;;;12.35;5.65;;;;;;;9.22;47.81;98029.91;251091;1146;115493;-75
2021/03/14 16:48:40;;;;;;;8.68;4.45;;;;;;;9.16;47.52;98036.50;251273;1152;114572;-69
2021/03/14 16:53:43;;;;;;;9.25;4.90;;;;;;;9.11;47.51;98051.92;252282;1144;114081;-77
2021/03/14 16:58:45;;;;;;;11.00;5.50;;;;;;;9.04;47.31;98061.29;251819;1152;114687;-79
2021/03/14 17:03:50;;;;;;;13.88;5.80;;;;;;;8.91;47.55;98063.12;252262;1144;114399;-78
2021/03/14 17:08:53;;;;;;;13.30;5.93;;;;;;;8.76;47.77;98060.59;252320;1152;114412;-78
2021/03/14 17:13:55;;;;;;;12.07;6.37;;;;;;;8.73;47.63;98057.31;252235;1146;114817;-78
2021/03/14 17:18:58;;;;;;;13.08;5.85;;;;;;;8.62;48.22;98067.80;251225;1152;114550;-74
2021/03/14 17:24:02;;;;;;;13.33;6.48;;;;;;;8.55;48.34;98072.69;249580;1145;114691;-79
2021/03/14 17:29:04;;;;;;;12.45;7.20;;;;;;;8.48;47.86;98089.98;252278;1152;114347;-79
2021/03/14 17:34:07;;;;;;;18.20;7.88;;;;;;;8.42;48.25;98093.88;251792;1144;114515;-79
2021/03/14 17:39:09;;;;;;;18.93;9.08;;;;;;;8.35;48.23;98094.38;252254;1152;114528;-79
2021/03/14 17:44:12;;;;;;;15.33;8.35;;;;;;;8.31;48.22;98107.00;252340;1144;114049;-79
2021/03/14 17:49:14;;;;;;;17.25;8.55;;;;;;;8.22;48.42;98119.09;252158;1152;114597;-77
2021/03/14 17:54:17;;;;;;;17.40;8.05;;;;;;;8.13;48.39;98114.40;250916;1144;114483;-78
2021/03/14 17:59:19;;;;;;;23.93;8.40;;;;;;;8.05;48.53;98117.56;252266;1152;114802;-87
2021/03/14 18:04:22;;;;;;;17.55;7.95;;;;;;;8.04;49.17;98117.66;252230;1146;114627;-85
2021/03/14 18:09:24;;;;;;;16.43;7.43;;;;;;;8.02;49.16;98124.88;252261;1152;115586;-80
2021/03/14 18:14:27;;;;;;;16.70;7.50;;;;;;;7.96;49.00;98133.22;251541;1146;114190;-79
2021/03/14 18:19:29;;;;;;;14.28;7.65;;;;;;;7.92;49.17;98135.22;250679;1153;114571;-81
2021/03/14 18:24:32;;;;;;;21.67;11.23;;;;;;;7.88;49.47;98144.33;251886;1152;114305;-80
2021/03/14 18:29:34;;;;;;;19.38;8.60;;;;;;;7.82;50.11;98150.87;251215;1144;114711;-80
2021/03/14 18:34:37;;;;;;;17.70;8.00;;;;;;;7.78;50.44;98140.58;251071;1152;114625;-82
2021/03/14 18:39:39;;;;;;;15.33;8.10;;;;;;;7.67;50.36;98146.55;249009;1152;116129;-82
2021/03/14 18:44:42;;;;;;;18.38;9.10;;;;;;;7.60;50.33;98150.54;250969;1152;114215;-72
2021/03/14 18:49:44;;;;;;;17.87;9.23;;;;;;;7.59;50.79;98149.70;251016;1146;114848;-81
2021/03/14 18:54:46;;;;;;;17.03;9.77;;;;;;;7.56;50.69;98147.24;251096;1150;114396;-83
2021/03/14 18:59:50;;;;;;;17.88;9.03;;;;;;;7.48;50.48;98159.29;252154;1144;114667;-83
2021/03/14 19:04:52;;;;;;;17.03;9.20;;;;;;;7.44;51.10;98163.93;252330;1152;114604;-79
2021/03/14 19:09:56;;;;;;;18.50;8.80;;;;;;;7.42;50.41;98159.67;252238;1146;114752;-81
2021/03/14 19:15:00;;;;;;;19.17;9.03;;;;;;;7.38;50.87;98166.11;250069;1144;114551;-80
2021/03/14 19:20:12;;;;;;;22.35;9.50;;;;;;;7.27;50.94;98167.64;252160;1146;114699;-79
2021/03/14 19:25:14;;;;;;;19.58;10.43;;;;;;;7.21;51.31;98175.95;251036;1152;114664;-80
2021/03/14 19:30:18;;;;;;;19.37;10.10;;;;;;;7.20;50.87;98176.03;252284;1146;115152;-81
2021/03/14 19:35:20;;;;;;;18.15;9.10;;;;;;;7.19;51.63;98176.98;252286;1152;114984;-77
2021/03/14 19:40:23;;;;;;;15.00;8.98;;;;;;;7.16;51.41;98182.46;252338;1152;114436;-78
2021/03/14 19:45:26;;;;;;;13.80;8.15;;;;;;;7.16;51.21;98195.69;250879;1153;114793;-76
2021/03/14 19:50:28;;;;;;;19.15;8.90;;;;;;;7.13;51.53;98198.52;252292;1146;114061;-80
2021/03/14 19:55:31;;;;;;;19.13;10.98;;;;;;;7.16;51.78;98212.41;252426;1152;114400;-81
2021/03/14 20:00:34;;;;;;;20.60;11.57;;;;;;;7.16;51.83;98216.86;252359;1147;114328;-79
2021/03/14 20:05:37;;;;;;;21.05;12.13;;;;;;;7.15;52.05;98216.02;251637;1152;114547;-80
2021/03/14 20:10:40;;;;;;;23.90;13.57;;;;;;;7.09;52.37;98213.73;252019;1146;114695;-80
2021/03/14 20:15:44;;;;;;;23.90;13.57;;;;;;;7.06;52.17;98224.50;252246;1153;114748;-81
2021/03/14 20:20:47;;;;;;;23.07;14.47;;;;;;;7.03;52.34;98224.69;252253;1146;114552;-79
2021/03/14 20:25:50;;;;;;;23.07;15.37;;;;;;;6.97;52.61;98236.51;252205;1152;115637;-81
2021/03/14 20:30:54;;;;;;;24.70;15.38;;;;;;;6.97;52.73;98243.59;252218;1152;114486;-80
2021/03/14 20:35:56;;;;;;;22.43;14.73;;;;;;;6.95;52.48;98245.47;252233;1152;114412;-82
2021/03/14 20:40:59;;;;;;;26.83;15.27;;;;;;;6.94;52.74;98244.63;252050;1145;114650;-80
2021/03/14 20:46:01;;;;;;;23.60;14.67;;;;;;;6.88;52.42;98239.70;251080;1152;114865;-80
2021/03/14 20:51:04;;;;;;;25.13;14.77;;;;;;;6.81;53.06;98233.92;251834;1146;114474;-81
2021/03/14 20:56:06;;;;;;;23.55;13.40;;;;;;;6.74;52.96;98237.03;251990;1152;114663;-80
2021/03/14 21:01:09;;;;;;;24.20;13.55;;;;;;;6.70;52.93;98239.01;252248;1146;114731;-79
2021/03/14 21:06:13;;;;;;;22.10;13.00;;;;;;;6.73;53.06;98245.91;252204;1152;114755;-85
2021/03/14 21:11:16;;;;;;;21.83;11.30;;;;;;;6.74;53.12;98244.97;252220;1146;114610;-86
2021/03/14 21:16:23;;;;;;;20.97;11.07;;;;;;;6.68;52.76;98248.81;251981;1153;114739;-86
2021/03/14 21:21:26;;;;;;;18.45;10.05;;;;;;;6.57;52.85;98245.95;251929;1153;114484;-85
2021/03/14 21:26:29;;;;;;;21.75;11.00;;;;;;;6.47;53.58;98244.79;251959;1146;115087;-85
2021/03/14 21:31:31;;;;;;;20.83;11.07;;;;;;;6.37;53.53;98250.59;251599;1147;114652;-85
2021/03/14 21:36:36;;;;;;;20.27;10.53;;;;;;;6.30;54.20;98248.41;251749;1153;116191;-84
2021/03/14 21:41:39;;;;;;;20.73;10.60;;;;;;;6.24;53.49;98244.31;251952;1146;115043;-84
2021/03/14 21:46:42;;;;;;;21.13;11.68;;;;;;;6.21;54.58;98256.84;252086;1153;114929;-85
2021/03/14 21:51:44;;;;;;;23.08;11.85;;;;;;;6.20;54.55;98261.28;251443;1145;115328;-83
2021/03/14 21:56:47;;;;;;;26.23;12.25;;;;;;;6.21;55.01;98265.62;251902;1146;114815;-83
2021/03/14 22:01:49;;;;;;;28.73;12.35;;;;;;;6.22;54.55;98277.91;251884;1146;114733;-84
2021/03/14 22:06:58;;;;;;;27.35;12.15;;;;;;;6.19;54.51;98264.88;251956;1153;115029;-83
2021/03/14 22:12:01;;;;;;;23.67;12.47;;;;;;;6.18;54.59;98272.87;251949;1153;115007;-83
2021/03/14 22:17:04;;;;;;;24.50;12.30;;;;;;;6.13;54.77;98295.12;251777;1146;114857;-83
2021/03/14 22:22:07;;;;;;;26.28;12.45;;;;;;;6.10;55.25;98299.72;251931;1146;114890;-83
2021/03/14 22:27:10;;;;;;;24.30;12.13;;;;;;;6.09;55.03;98288.31;251648;1145;115029;-84
2021/03/14 22:32:12;;;;;;;25.87;13.17;;;;;;;6.07;55.37;98290.17;251998;1145;115697;-76
2021/03/14 22:37:24;;;;;;;26.95;13.38;;;;;;;6.06;54.94;98300.84;251959;1145;115358;-76
2021/03/14 22:42:26;;;;;;;27.58;13.48;;;;;;;6.03;55.32;98298.36;251880;1146;115257;-75
2021/03/14 22:47:29;;;;;;;28.60;14.38;;;;;;;6.00;55.23;98290.61;252002;1146;115162;-75
2021/03/14 22:52:31;;;;;;;25.80;13.20;;;;;;;5.97;54.88;98294.27;251896;1146;114856;-76
2021/03/14 22:57:34;;;;;;;27.55;14.78;;;;;;;5.92;55.02;98289.25;251994;1146;114876;-75
2021/03/14 23:02:57;;;;;;;29.63;16.07;;;;;;;5.86;55.77;98286.06;251822;1147;114918;-75
2021/03/14 23:08:05;;;;;;;31.33;15.47;;;;;;;5.83;55.21;98287.07;250539;1147;115025;-71
2021/03/14 23:13:08;;;;;;;31.30;15.65;;;;;;;5.76;55.69;98288.34;251960;1146;114988;-72
2021/03/14 23:18:11;;;;;;;28.75;15.98;;;;;;;5.70;55.82;98299.23;251993;1145;114888;-72
2021/03/14 23:23:18;;;;;;;30.75;15.85;;;;;;;5.65;55.41;98299.49;251891;1146;114823;-72
2021/03/14 23:28:27;;;;;;;30.37;17.10;;;;;;;5.62;55.49;98298.80;251929;1146;115049;-72